sensor_id;sensor_type;location;lat;lon;timestamp;P1;durP1;ratioP1;P2;durP2;ratioP2
78893;SDS011;68282;42.698;23.350;2023-05-10T00:00:10;3.83;;;2.47;;
78893;SDS011;68282;42.698;23.350;2023-05-10T00:02:36;4.57;;;3.33;;
78893;SDS011;68282;42.698;23.350;2023-05-10T00:05:01;4.68;;;3.22;;
78893;SDS011;68282;42.698;23.350;2023-05-10T00:07:26;5.13;;;3.40;;
78893;SDS011;68282;42.698;23.350;2023-05-10T00:09:52;6.45;;;3.92;;
78893;SDS011;68282;42.698;23.350;2023-05-10T00:12:17;5.95;;;4.22;;
78893;SDS011;68282;42.698;23.350;2023-05-10T00:14:43;6.68;;;4.82;;
78893;SDS011;68282;42.698;23.350;2023-05-10T00:17:08;6.93;;;5.22;;
78893;SDS011;68282;42.698;23.350;2023-05-10T00:19:33;6.95;;;4.90;;
78893;SDS011;68282;42.698;23.350;2023-05-10T00:21:59;8.25;;;5.38;;
78893;SDS011;68282;42.698;23.350;2023-05-10T00:24:25;7.65;;;5.10;;
78893;SDS011;68282;42.698;23.350;2023-05-10T00:27:16;9.50;;;4.90;;
78893;SDS011;68282;42.698;23.350;2023-05-10T00:29:44;5.85;;;4.50;;
78893;SDS011;68282;42.698;23.350;2023-05-10T00:32:10;9.90;;;5.10;;
78893;SDS011;68282;42.698;23.350;2023-05-10T00:34:35;6.60;;;4.32;;
78893;SDS011;68282;42.698;23.350;2023-05-10T00:37:01;6.85;;;5.07;;
78893;SDS011;68282;42.698;23.350;2023-05-10T00:39:26;8.00;;;5.07;;
78893;SDS011;68282;42.698;23.350;2023-05-10T00:41:53;5.78;;;4.78;;
78893;SDS011;68282;42.698;23.350;2023-05-10T00:44:19;7.57;;;4.72;;
78893;SDS011;68282;42.698;23.350;2023-05-10T00:46:44;5.32;;;4.40;;
78893;SDS011;68282;42.698;23.350;2023-05-10T00:49:10;7.63;;;5.30;;
78893;SDS011;68282;42.698;23.350;2023-05-10T00:51:36;5.95;;;4.55;;
78893;SDS011;68282;42.698;23.350;2023-05-10T00:54:02;7.32;;;5.15;;
78893;SDS011;68282;42.698;23.350;2023-05-10T00:56:28;7.38;;;5.07;;
78893;SDS011;68282;42.698;23.350;2023-05-10T00:58:54;6.93;;;5.13;;
78893;SDS011;68282;42.698;23.350;2023-05-10T01:01:20;6.85;;;5.25;;
78893;SDS011;68282;42.698;23.350;2023-05-10T01:03:46;7.18;;;4.93;;
78893;SDS011;68282;42.698;23.350;2023-05-10T01:06:12;6.72;;;5.38;;
78893;SDS011;68282;42.698;23.350;2023-05-10T01:08:37;9.80;;;5.82;;
78893;SDS011;68282;42.698;23.350;2023-05-10T01:11:04;6.93;;;5.47;;
78893;SDS011;68282;42.698;23.350;2023-05-10T01:13:37;6.97;;;4.85;;
78893;SDS011;68282;42.698;23.350;2023-05-10T01:16:04;6.07;;;4.80;;
78893;SDS011;68282;42.698;23.350;2023-05-10T01:18:33;10.63;;;4.55;;
78893;SDS011;68282;42.698;23.350;2023-05-10T01:21:19;6.20;;;4.78;;
78893;SDS011;68282;42.698;23.350;2023-05-10T01:26:48;6.28;;;5.20;;
78893;SDS011;68282;42.698;23.350;2023-05-10T01:29:39;6.53;;;5.10;;
78893;SDS011;68282;42.698;23.350;2023-05-10T01:37:52;5.40;;;4.35;;
78893;SDS011;68282;42.698;23.350;2023-05-10T01:40:30;4.95;;;4.30;;
78893;SDS011;68282;42.698;23.350;2023-05-10T01:43:03;5.57;;;4.60;;
78893;SDS011;68282;42.698;23.350;2023-05-10T01:48:08;5.13;;;4.03;;
78893;SDS011;68282;42.698;23.350;2023-05-10T01:50:36;5.60;;;4.45;;
78893;SDS011;68282;42.698;23.350;2023-05-10T01:53:05;5.78;;;3.90;;
78893;SDS011;68282;42.698;23.350;2023-05-10T01:55:34;4.97;;;3.80;;
78893;SDS011;68282;42.698;23.350;2023-05-10T01:58:07;5.13;;;4.18;;
78893;SDS011;68282;42.698;23.350;2023-05-10T02:00:35;5.55;;;3.85;;
78893;SDS011;68282;42.698;23.350;2023-05-10T02:03:04;4.93;;;3.85;;
78893;SDS011;68282;42.698;23.350;2023-05-10T02:05:31;5.22;;;3.97;;
78893;SDS011;68282;42.698;23.350;2023-05-10T02:07:58;3.95;;;3.22;;
78893;SDS011;68282;42.698;23.350;2023-05-10T02:10:27;4.60;;;3.58;;
78893;SDS011;68282;42.698;23.350;2023-05-10T02:12:53;4.43;;;3.22;;
78893;SDS011;68282;42.698;23.350;2023-05-10T02:15:22;5.03;;;3.67;;
78893;SDS011;68282;42.698;23.350;2023-05-10T02:17:48;4.55;;;3.75;;
78893;SDS011;68282;42.698;23.350;2023-05-10T02:20:14;5.00;;;4.07;;
78893;SDS011;68282;42.698;23.350;2023-05-10T02:22:41;5.60;;;3.70;;
78893;SDS011;68282;42.698;23.350;2023-05-10T02:25:09;4.60;;;3.78;;
78893;SDS011;68282;42.698;23.350;2023-05-10T02:27:38;5.50;;;3.95;;
78893;SDS011;68282;42.698;23.350;2023-05-10T02:30:06;4.30;;;3.65;;
78893;SDS011;68282;42.698;23.350;2023-05-10T02:32:32;5.70;;;4.15;;
78893;SDS011;68282;42.698;23.350;2023-05-10T02:34:59;4.88;;;3.72;;
78893;SDS011;68282;42.698;23.350;2023-05-10T02:37:26;5.18;;;3.95;;
78893;SDS011;68282;42.698;23.350;2023-05-10T02:39:53;5.72;;;3.78;;
78893;SDS011;68282;42.698;23.350;2023-05-10T02:42:23;4.05;;;3.10;;
78893;SDS011;68282;42.698;23.350;2023-05-10T02:44:52;5.28;;;3.53;;
78893;SDS011;68282;42.698;23.350;2023-05-10T02:47:19;5.18;;;4.20;;
78893;SDS011;68282;42.698;23.350;2023-05-10T02:49:45;5.13;;;3.50;;
78893;SDS011;68282;42.698;23.350;2023-05-10T02:52:11;5.30;;;4.10;;
78893;SDS011;68282;42.698;23.350;2023-05-10T02:54:44;4.13;;;2.95;;
78893;SDS011;68282;42.698;23.350;2023-05-10T02:57:11;5.78;;;3.80;;
78893;SDS011;68282;42.698;23.350;2023-05-10T02:59:44;5.18;;;3.38;;
78893;SDS011;68282;42.698;23.350;2023-05-10T03:02:10;4.75;;;3.38;;
78893;SDS011;68282;42.698;23.350;2023-05-10T03:04:39;5.13;;;3.22;;
78893;SDS011;68282;42.698;23.350;2023-05-10T03:07:05;5.35;;;3.63;;
78893;SDS011;68282;42.698;23.350;2023-05-10T03:09:31;5.05;;;3.50;;
78893;SDS011;68282;42.698;23.350;2023-05-10T03:14:57;5.97;;;3.85;;
78893;SDS011;68282;42.698;23.350;2023-05-10T03:20:38;5.35;;;4.03;;
78893;SDS011;68282;42.698;23.350;2023-05-10T03:25:42;6.22;;;3.80;;
78893;SDS011;68282;42.698;23.350;2023-05-10T03:28:09;6.80;;;3.78;;
78893;SDS011;68282;42.698;23.350;2023-05-10T03:30:34;6.63;;;4.30;;
78893;SDS011;68282;42.698;23.350;2023-05-10T03:33:05;5.43;;;3.97;;
78893;SDS011;68282;42.698;23.350;2023-05-10T03:35:33;5.20;;;3.90;;
78893;SDS011;68282;42.698;23.350;2023-05-10T03:37:59;5.22;;;3.70;;
78893;SDS011;68282;42.698;23.350;2023-05-10T03:40:26;4.82;;;3.70;;
78893;SDS011;68282;42.698;23.350;2023-05-10T03:42:54;7.72;;;4.43;;
78893;SDS011;68282;42.698;23.350;2023-05-10T03:45:20;6.10;;;4.40;;
78893;SDS011;68282;42.698;23.350;2023-05-10T03:47:45;5.80;;;4.10;;
78893;SDS011;68282;42.698;23.350;2023-05-10T03:50:10;6.10;;;4.40;;
78893;SDS011;68282;42.698;23.350;2023-05-10T03:52:36;8.43;;;4.80;;
78893;SDS011;68282;42.698;23.350;2023-05-10T03:55:04;6.05;;;4.38;;
78893;SDS011;68282;42.698;23.350;2023-05-10T03:57:30;5.30;;;3.83;;
78893;SDS011;68282;42.698;23.350;2023-05-10T03:59:55;7.75;;;4.78;;
78893;SDS011;68282;42.698;23.350;2023-05-10T04:02:21;5.20;;;4.53;;
78893;SDS011;68282;42.698;23.350;2023-05-10T04:04:46;8.57;;;4.60;;
78893;SDS011;68282;42.698;23.350;2023-05-10T04:07:11;7.00;;;3.90;;
78893;SDS011;68282;42.698;23.350;2023-05-10T04:09:37;5.22;;;3.75;;
78893;SDS011;68282;42.698;23.350;2023-05-10T04:12:02;5.97;;;4.13;;
78893;SDS011;68282;42.698;23.350;2023-05-10T04:14:27;7.63;;;3.75;;
78893;SDS011;68282;42.698;23.350;2023-05-10T04:16:53;5.45;;;4.00;;
78893;SDS011;68282;42.698;23.350;2023-05-10T04:19:18;5.28;;;3.38;;
78893;SDS011;68282;42.698;23.350;2023-05-10T04:21:44;7.13;;;3.83;;
78893;SDS011;68282;42.698;23.350;2023-05-10T04:24:09;7.70;;;3.90;;
78893;SDS011;68282;42.698;23.350;2023-05-10T04:26:34;4.47;;;2.95;;
78893;SDS011;68282;42.698;23.350;2023-05-10T04:29:00;8.23;;;4.15;;
78893;SDS011;68282;42.698;23.350;2023-05-10T04:31:25;6.28;;;3.90;;
78893;SDS011;68282;42.698;23.350;2023-05-10T04:33:52;4.75;;;3.97;;
78893;SDS011;68282;42.698;23.350;2023-05-10T04:36:18;6.43;;;3.90;;
78893;SDS011;68282;42.698;23.350;2023-05-10T04:38:43;4.97;;;3.20;;
78893;SDS011;68282;42.698;23.350;2023-05-10T04:41:09;6.85;;;4.78;;
78893;SDS011;68282;42.698;23.350;2023-05-10T04:43:36;4.78;;;3.63;;
78893;SDS011;68282;42.698;23.350;2023-05-10T04:46:02;7.38;;;3.75;;
78893;SDS011;68282;42.698;23.350;2023-05-10T04:48:28;9.07;;;4.13;;
78893;SDS011;68282;42.698;23.350;2023-05-10T04:50:53;7.40;;;3.92;;
78893;SDS011;68282;42.698;23.350;2023-05-10T04:53:19;5.40;;;3.75;;
78893;SDS011;68282;42.698;23.350;2023-05-10T04:55:44;5.20;;;3.83;;
78893;SDS011;68282;42.698;23.350;2023-05-10T04:58:10;5.88;;;4.13;;
78893;SDS011;68282;42.698;23.350;2023-05-10T05:00:35;8.15;;;4.65;;
78893;SDS011;68282;42.698;23.350;2023-05-10T05:03:01;6.78;;;4.22;;
78893;SDS011;68282;42.698;23.350;2023-05-10T05:05:26;6.20;;;4.80;;
78893;SDS011;68282;42.698;23.350;2023-05-10T05:07:52;7.63;;;4.05;;
78893;SDS011;68282;42.698;23.350;2023-05-10T05:10:17;5.75;;;4.28;;
78893;SDS011;68282;42.698;23.350;2023-05-10T05:12:42;6.93;;;4.25;;
78893;SDS011;68282;42.698;23.350;2023-05-10T05:15:08;7.45;;;4.85;;
78893;SDS011;68282;42.698;23.350;2023-05-10T05:17:35;5.45;;;4.50;;
78893;SDS011;68282;42.698;23.350;2023-05-10T05:20:01;7.78;;;4.40;;
78893;SDS011;68282;42.698;23.350;2023-05-10T05:22:27;6.00;;;4.20;;
78893;SDS011;68282;42.698;23.350;2023-05-10T05:24:56;7.45;;;4.82;;
78893;SDS011;68282;42.698;23.350;2023-05-10T05:27:23;5.95;;;4.28;;
78893;SDS011;68282;42.698;23.350;2023-05-10T05:29:54;8.65;;;4.45;;
78893;SDS011;68282;42.698;23.350;2023-05-10T05:32:19;6.78;;;4.75;;
78893;SDS011;68282;42.698;23.350;2023-05-10T05:34:45;4.85;;;4.35;;
78893;SDS011;68282;42.698;23.350;2023-05-10T05:37:18;6.40;;;4.60;;
78893;SDS011;68282;42.698;23.350;2023-05-10T05:39:46;6.85;;;4.72;;
78893;SDS011;68282;42.698;23.350;2023-05-10T05:42:11;5.90;;;4.45;;
78893;SDS011;68282;42.698;23.350;2023-05-10T05:44:38;8.95;;;4.90;;
78893;SDS011;68282;42.698;23.350;2023-05-10T05:47:04;5.55;;;4.53;;
78893;SDS011;68282;42.698;23.350;2023-05-10T05:49:30;6.18;;;4.60;;
78893;SDS011;68282;42.698;23.350;2023-05-10T05:51:59;8.50;;;4.93;;
78893;SDS011;68282;42.698;23.350;2023-05-10T05:54:25;6.00;;;4.65;;
78893;SDS011;68282;42.698;23.350;2023-05-10T05:56:55;7.43;;;4.97;;
78893;SDS011;68282;42.698;23.350;2023-05-10T05:59:24;8.00;;;5.43;;
78893;SDS011;68282;42.698;23.350;2023-05-10T06:01:50;9.15;;;5.07;;
78893;SDS011;68282;42.698;23.350;2023-05-10T06:04:15;6.95;;;4.88;;
78893;SDS011;68282;42.698;23.350;2023-05-10T06:06:41;7.50;;;5.57;;
78893;SDS011;68282;42.698;23.350;2023-05-10T06:09:07;8.98;;;5.35;;
78893;SDS011;68282;42.698;23.350;2023-05-10T06:11:33;9.02;;;4.75;;
78893;SDS011;68282;42.698;23.350;2023-05-10T06:13:59;8.68;;;4.68;;
78893;SDS011;68282;42.698;23.350;2023-05-10T06:16:25;8.60;;;4.32;;
78893;SDS011;68282;42.698;23.350;2023-05-10T06:18:51;10.07;;;5.28;;
78893;SDS011;68282;42.698;23.350;2023-05-10T06:21:16;9.23;;;4.90;;
78893;SDS011;68282;42.698;23.350;2023-05-10T06:23:41;7.40;;;5.05;;
78893;SDS011;68282;42.698;23.350;2023-05-10T06:26:07;7.80;;;5.00;;
78893;SDS011;68282;42.698;23.350;2023-05-10T06:28:32;12.45;;;5.47;;
78893;SDS011;68282;42.698;23.350;2023-05-10T06:30:58;7.25;;;5.25;;
78893;SDS011;68282;42.698;23.350;2023-05-10T06:33:24;6.97;;;5.15;;
78893;SDS011;68282;42.698;23.350;2023-05-10T06:35:49;11.45;;;5.00;;
78893;SDS011;68282;42.698;23.350;2023-05-10T06:38:15;6.78;;;4.50;;
78893;SDS011;68282;42.698;23.350;2023-05-10T06:40:41;5.68;;;4.25;;
78893;SDS011;68282;42.698;23.350;2023-05-10T06:43:07;8.30;;;5.25;;
78893;SDS011;68282;42.698;23.350;2023-05-10T06:45:32;9.55;;;4.50;;
78893;SDS011;68282;42.698;23.350;2023-05-10T06:47:57;6.13;;;3.85;;
78893;SDS011;68282;42.698;23.350;2023-05-10T06:50:23;6.97;;;4.32;;
78893;SDS011;68282;42.698;23.350;2023-05-10T06:52:48;6.22;;;4.97;;
78893;SDS011;68282;42.698;23.350;2023-05-10T06:55:14;11.82;;;4.60;;
78893;SDS011;68282;42.698;23.350;2023-05-10T06:57:39;6.57;;;4.53;;
78893;SDS011;68282;42.698;23.350;2023-05-10T07:00:05;7.15;;;5.07;;
78893;SDS011;68282;42.698;23.350;2023-05-10T07:02:31;5.85;;;4.10;;
78893;SDS011;68282;42.698;23.350;2023-05-10T07:04:56;6.03;;;4.35;;
78893;SDS011;68282;42.698;23.350;2023-05-10T07:07:22;6.85;;;4.72;;
78893;SDS011;68282;42.698;23.350;2023-05-10T07:09:47;5.90;;;4.43;;
78893;SDS011;68282;42.698;23.350;2023-05-10T07:12:14;8.00;;;4.70;;
78893;SDS011;68282;42.698;23.350;2023-05-10T07:14:40;7.20;;;4.43;;
78893;SDS011;68282;42.698;23.350;2023-05-10T07:17:05;6.18;;;4.38;;
78893;SDS011;68282;42.698;23.350;2023-05-10T07:19:31;6.90;;;4.72;;
78893;SDS011;68282;42.698;23.350;2023-05-10T07:21:57;8.45;;;5.50;;
78893;SDS011;68282;42.698;23.350;2023-05-10T07:24:23;7.88;;;5.82;;
78893;SDS011;68282;42.698;23.350;2023-05-10T07:26:49;8.25;;;5.05;;
78893;SDS011;68282;42.698;23.350;2023-05-10T07:29:14;10.45;;;5.55;;
78893;SDS011;68282;42.698;23.350;2023-05-10T07:31:40;6.30;;;4.20;;
78893;SDS011;68282;42.698;23.350;2023-05-10T07:34:07;6.25;;;4.25;;
78893;SDS011;68282;42.698;23.350;2023-05-10T07:36:33;7.20;;;4.32;;
78893;SDS011;68282;42.698;23.350;2023-05-10T07:38:58;7.03;;;4.57;;
78893;SDS011;68282;42.698;23.350;2023-05-10T07:41:24;7.70;;;4.15;;
78893;SDS011;68282;42.698;23.350;2023-05-10T07:43:49;6.47;;;4.70;;
78893;SDS011;68282;42.698;23.350;2023-05-10T07:46:15;6.13;;;4.93;;
78893;SDS011;68282;42.698;23.350;2023-05-10T07:48:40;8.25;;;5.15;;
78893;SDS011;68282;42.698;23.350;2023-05-10T07:51:06;7.40;;;4.85;;
78893;SDS011;68282;42.698;23.350;2023-05-10T07:53:34;9.82;;;5.53;;
78893;SDS011;68282;42.698;23.350;2023-05-10T07:56:19;11.80;;;5.93;;
78893;SDS011;68282;42.698;23.350;2023-05-10T07:58:48;9.23;;;5.75;;
78893;SDS011;68282;42.698;23.350;2023-05-10T08:01:14;11.13;;;5.85;;
78893;SDS011;68282;42.698;23.350;2023-05-10T08:03:39;8.50;;;6.15;;
78893;SDS011;68282;42.698;23.350;2023-05-10T08:06:05;6.97;;;5.05;;
78893;SDS011;68282;42.698;23.350;2023-05-10T08:08:30;9.50;;;5.63;;
78893;SDS011;68282;42.698;23.350;2023-05-10T08:10:56;13.57;;;5.60;;
78893;SDS011;68282;42.698;23.350;2023-05-10T08:13:22;10.80;;;5.70;;
78893;SDS011;68282;42.698;23.350;2023-05-10T08:15:47;9.13;;;5.78;;
78893;SDS011;68282;42.698;23.350;2023-05-10T08:18:13;9.60;;;6.20;;
78893;SDS011;68282;42.698;23.350;2023-05-10T08:20:38;10.90;;;5.13;;
78893;SDS011;68282;42.698;23.350;2023-05-10T08:23:04;8.70;;;5.68;;
78893;SDS011;68282;42.698;23.350;2023-05-10T08:25:29;7.70;;;5.45;;
78893;SDS011;68282;42.698;23.350;2023-05-10T08:27:55;7.30;;;5.78;;
78893;SDS011;68282;42.698;23.350;2023-05-10T08:30:20;7.82;;;5.28;;
78893;SDS011;68282;42.698;23.350;2023-05-10T08:32:45;9.10;;;5.78;;
78893;SDS011;68282;42.698;23.350;2023-05-10T08:35:11;8.50;;;5.40;;
78893;SDS011;68282;42.698;23.350;2023-05-10T08:37:36;8.85;;;5.60;;
78893;SDS011;68282;42.698;23.350;2023-05-10T08:40:02;8.55;;;6.10;;
78893;SDS011;68282;42.698;23.350;2023-05-10T08:42:28;9.40;;;6.03;;
78893;SDS011;68282;42.698;23.350;2023-05-10T08:44:56;7.75;;;5.68;;
78893;SDS011;68282;42.698;23.350;2023-05-10T08:47:22;7.25;;;5.53;;
78893;SDS011;68282;42.698;23.350;2023-05-10T08:49:48;7.13;;;5.47;;
78893;SDS011;68282;42.698;23.350;2023-05-10T08:52:16;8.02;;;5.38;;
78893;SDS011;68282;42.698;23.350;2023-05-10T08:54:43;9.50;;;6.35;;
78893;SDS011;68282;42.698;23.350;2023-05-10T08:57:09;10.82;;;6.75;;
78893;SDS011;68282;42.698;23.350;2023-05-10T08:59:37;9.23;;;6.70;;
78893;SDS011;68282;42.698;23.350;2023-05-10T09:02:04;8.70;;;5.45;;
78893;SDS011;68282;42.698;23.350;2023-05-10T09:04:31;9.35;;;6.25;;
78893;SDS011;68282;42.698;23.350;2023-05-10T09:06:56;7.90;;;6.13;;
78893;SDS011;68282;42.698;23.350;2023-05-10T09:09:22;8.98;;;5.90;;
78893;SDS011;68282;42.698;23.350;2023-05-10T09:11:50;11.48;;;6.35;;
78893;SDS011;68282;42.698;23.350;2023-05-10T09:14:17;8.57;;;5.47;;
78893;SDS011;68282;42.698;23.350;2023-05-10T09:16:43;6.57;;;5.65;;
78893;SDS011;68282;42.698;23.350;2023-05-10T09:19:09;8.88;;;6.82;;
78893;SDS011;68282;42.698;23.350;2023-05-10T09:21:35;8.80;;;6.35;;
78893;SDS011;68282;42.698;23.350;2023-05-10T09:24:05;9.60;;;5.95;;
78893;SDS011;68282;42.698;23.350;2023-05-10T09:26:31;6.95;;;5.20;;
78893;SDS011;68282;42.698;23.350;2023-05-10T09:28:59;7.85;;;5.57;;
78893;SDS011;68282;42.698;23.350;2023-05-10T09:31:42;10.30;;;6.35;;
78893;SDS011;68282;42.698;23.350;2023-05-10T09:34:11;8.55;;;5.80;;
78893;SDS011;68282;42.698;23.350;2023-05-10T09:36:49;8.38;;;5.57;;
78893;SDS011;68282;42.698;23.350;2023-05-10T09:39:16;7.55;;;5.65;;
78893;SDS011;68282;42.698;23.350;2023-05-10T09:41:41;14.10;;;6.55;;
78893;SDS011;68282;42.698;23.350;2023-05-10T09:44:07;9.13;;;6.43;;
78893;SDS011;68282;42.698;23.350;2023-05-10T09:46:34;9.98;;;7.00;;
78893;SDS011;68282;42.698;23.350;2023-05-10T09:49:01;7.80;;;5.18;;
78893;SDS011;68282;42.698;23.350;2023-05-10T09:51:26;9.70;;;5.85;;
78893;SDS011;68282;42.698;23.350;2023-05-10T09:54:10;14.10;;;6.20;;
78893;SDS011;68282;42.698;23.350;2023-05-10T09:56:37;7.13;;;6.30;;
78893;SDS011;68282;42.698;23.350;2023-05-10T09:59:05;8.77;;;6.18;;
78893;SDS011;68282;42.698;23.350;2023-05-10T10:01:32;8.82;;;5.55;;
78893;SDS011;68282;42.698;23.350;2023-05-10T10:03:59;6.65;;;5.38;;
78893;SDS011;68282;42.698;23.350;2023-05-10T10:06:28;7.88;;;5.43;;
78893;SDS011;68282;42.698;23.350;2023-05-10T10:08:54;13.10;;;5.30;;
78893;SDS011;68282;42.698;23.350;2023-05-10T10:11:21;8.13;;;5.70;;
78893;SDS011;68282;42.698;23.350;2023-05-10T10:13:47;7.88;;;5.80;;
78893;SDS011;68282;42.698;23.350;2023-05-10T10:16:13;8.25;;;5.35;;
78893;SDS011;68282;42.698;23.350;2023-05-10T10:18:39;7.25;;;5.18;;
78893;SDS011;68282;42.698;23.350;2023-05-10T10:21:07;8.93;;;6.22;;
78893;SDS011;68282;42.698;23.350;2023-05-10T10:23:34;7.20;;;5.68;;
78893;SDS011;68282;42.698;23.350;2023-05-10T10:26:00;7.63;;;5.78;;
78893;SDS011;68282;42.698;23.350;2023-05-10T10:31:32;8.50;;;4.55;;
78893;SDS011;68282;42.698;23.350;2023-05-10T10:34:07;6.57;;;4.30;;
78893;SDS011;68282;42.698;23.350;2023-05-10T10:36:47;7.18;;;4.50;;
78893;SDS011;68282;42.698;23.350;2023-05-10T10:39:13;6.00;;;4.53;;
78893;SDS011;68282;42.698;23.350;2023-05-10T10:41:40;7.30;;;5.28;;
78893;SDS011;68282;42.698;23.350;2023-05-10T10:47:22;7.20;;;4.60;;
78893;SDS011;68282;42.698;23.350;2023-05-10T10:52:32;5.88;;;4.50;;
78893;SDS011;68282;42.698;23.350;2023-05-10T11:02:57;9.30;;;5.80;;
78893;SDS011;68282;42.698;23.350;2023-05-10T11:05:43;7.68;;;5.47;;
78893;SDS011;68282;42.698;23.350;2023-05-10T11:13:26;5.93;;;4.75;;
78893;SDS011;68282;42.698;23.350;2023-05-10T11:16:10;5.70;;;4.22;;
78893;SDS011;68282;42.698;23.350;2023-05-10T11:19:03;7.18;;;4.93;;
78893;SDS011;68282;42.698;23.350;2023-05-10T11:21:33;9.13;;;5.35;;
78893;SDS011;68282;42.698;23.350;2023-05-10T11:24:00;10.82;;;5.90;;
78893;SDS011;68282;42.698;23.350;2023-05-10T11:26:31;6.55;;;4.57;;
78893;SDS011;68282;42.698;23.350;2023-05-10T11:28:58;7.88;;;4.97;;
78893;SDS011;68282;42.698;23.350;2023-05-10T11:31:25;9.18;;;4.97;;
78893;SDS011;68282;42.698;23.350;2023-05-10T11:33:52;8.23;;;4.82;;
78893;SDS011;68282;42.698;23.350;2023-05-10T11:36:28;8.52;;;5.28;;
78893;SDS011;68282;42.698;23.350;2023-05-10T11:38:57;7.50;;;5.20;;
78893;SDS011;68282;42.698;23.350;2023-05-10T11:41:23;7.28;;;5.80;;
78893;SDS011;68282;42.698;23.350;2023-05-10T11:43:50;7.57;;;5.25;;
78893;SDS011;68282;42.698;23.350;2023-05-10T11:46:18;7.50;;;5.50;;
78893;SDS011;68282;42.698;23.350;2023-05-10T11:48:45;7.85;;;5.00;;
78893;SDS011;68282;42.698;23.350;2023-05-10T11:51:13;10.02;;;5.43;;
78893;SDS011;68282;42.698;23.350;2023-05-10T11:53:39;7.45;;;5.35;;
78893;SDS011;68282;42.698;23.350;2023-05-10T11:56:05;6.90;;;5.30;;
78893;SDS011;68282;42.698;23.350;2023-05-10T11:58:35;9.35;;;5.28;;
78893;SDS011;68282;42.698;23.350;2023-05-10T12:01:02;9.18;;;5.03;;
78893;SDS011;68282;42.698;23.350;2023-05-10T12:03:28;7.13;;;5.70;;
78893;SDS011;68282;42.698;23.350;2023-05-10T12:05:57;11.93;;;6.53;;
78893;SDS011;68282;42.698;23.350;2023-05-10T12:08:24;7.93;;;5.93;;
78893;SDS011;68282;42.698;23.350;2023-05-10T12:10:52;7.00;;;5.60;;
78893;SDS011;68282;42.698;23.350;2023-05-10T12:13:19;7.85;;;5.78;;
78893;SDS011;68282;42.698;23.350;2023-05-10T12:15:45;7.65;;;5.03;;
78893;SDS011;68282;42.698;23.350;2023-05-10T12:18:14;7.25;;;5.63;;
78893;SDS011;68282;42.698;23.350;2023-05-10T12:20:41;9.15;;;6.32;;
78893;SDS011;68282;42.698;23.350;2023-05-10T12:23:08;7.90;;;5.03;;
78893;SDS011;68282;42.698;23.350;2023-05-10T12:25:36;9.05;;;5.38;;
78893;SDS011;68282;42.698;23.350;2023-05-10T12:28:03;6.07;;;4.65;;
78893;SDS011;68282;42.698;23.350;2023-05-10T12:30:31;8.93;;;5.65;;
78893;SDS011;68282;42.698;23.350;2023-05-10T12:33:02;7.90;;;5.35;;
78893;SDS011;68282;42.698;23.350;2023-05-10T12:35:49;7.18;;;5.90;;
78893;SDS011;68282;42.698;23.350;2023-05-10T12:38:24;7.07;;;5.30;;
78893;SDS011;68282;42.698;23.350;2023-05-10T12:40:57;7.93;;;5.43;;
78893;SDS011;68282;42.698;23.350;2023-05-10T12:43:26;9.15;;;6.05;;
78893;SDS011;68282;42.698;23.350;2023-05-10T12:45:51;10.55;;;6.72;;
78893;SDS011;68282;42.698;23.350;2023-05-10T12:48:17;6.68;;;5.32;;
78893;SDS011;68282;42.698;23.350;2023-05-10T12:50:43;7.00;;;5.20;;
78893;SDS011;68282;42.698;23.350;2023-05-10T12:53:08;6.43;;;4.60;;
78893;SDS011;68282;42.698;23.350;2023-05-10T12:55:34;10.18;;;5.25;;
78893;SDS011;68282;42.698;23.350;2023-05-10T12:57:59;8.38;;;5.75;;
78893;SDS011;68282;42.698;23.350;2023-05-10T13:00:25;7.72;;;5.35;;
78893;SDS011;68282;42.698;23.350;2023-05-10T13:02:50;9.50;;;5.38;;
78893;SDS011;68282;42.698;23.350;2023-05-10T13:05:16;6.65;;;5.30;;
78893;SDS011;68282;42.698;23.350;2023-05-10T13:07:41;12.65;;;5.30;;
78893;SDS011;68282;42.698;23.350;2023-05-10T13:10:08;6.45;;;5.00;;
78893;SDS011;68282;42.698;23.350;2023-05-10T13:12:34;6.43;;;5.15;;
78893;SDS011;68282;42.698;23.350;2023-05-10T13:15:00;6.18;;;4.50;;
78893;SDS011;68282;42.698;23.350;2023-05-10T13:17:26;6.20;;;4.93;;
78893;SDS011;68282;42.698;23.350;2023-05-10T13:19:51;7.25;;;5.18;;
78893;SDS011;68282;42.698;23.350;2023-05-10T13:22:16;9.90;;;5.32;;
78893;SDS011;68282;42.698;23.350;2023-05-10T13:24:42;9.15;;;5.38;;
78893;SDS011;68282;42.698;23.350;2023-05-10T13:27:07;7.40;;;5.22;;
78893;SDS011;68282;42.698;23.350;2023-05-10T13:29:33;8.48;;;4.53;;
78893;SDS011;68282;42.698;23.350;2023-05-10T13:31:58;8.52;;;4.60;;
78893;SDS011;68282;42.698;23.350;2023-05-10T13:34:24;5.55;;;4.53;;
78893;SDS011;68282;42.698;23.350;2023-05-10T13:36:50;12.20;;;4.85;;
78893;SDS011;68282;42.698;23.350;2023-05-10T13:39:15;8.63;;;5.70;;
78893;SDS011;68282;42.698;23.350;2023-05-10T13:41:41;9.75;;;5.95;;
78893;SDS011;68282;42.698;23.350;2023-05-10T13:44:07;6.28;;;4.47;;
78893;SDS011;68282;42.698;23.350;2023-05-10T13:46:32;10.70;;;5.95;;
78893;SDS011;68282;42.698;23.350;2023-05-10T13:48:58;7.45;;;5.55;;
78893;SDS011;68282;42.698;23.350;2023-05-10T13:51:23;7.80;;;5.35;;
78893;SDS011;68282;42.698;23.350;2023-05-10T13:53:49;6.22;;;5.10;;
78893;SDS011;68282;42.698;23.350;2023-05-10T13:59:03;6.25;;;4.80;;
78893;SDS011;68282;42.698;23.350;2023-05-10T14:01:29;6.53;;;4.75;;
78893;SDS011;68282;42.698;23.350;2023-05-10T14:03:55;10.35;;;5.20;;
78893;SDS011;68282;42.698;23.350;2023-05-10T14:06:20;9.15;;;5.45;;
78893;SDS011;68282;42.698;23.350;2023-05-10T14:08:46;8.68;;;5.80;;
78893;SDS011;68282;42.698;23.350;2023-05-10T14:11:12;6.78;;;5.20;;
78893;SDS011;68282;42.698;23.350;2023-05-10T14:13:37;7.18;;;4.97;;
78893;SDS011;68282;42.698;23.350;2023-05-10T14:16:03;10.25;;;5.40;;
78893;SDS011;68282;42.698;23.350;2023-05-10T14:18:29;8.48;;;5.55;;
78893;SDS011;68282;42.698;23.350;2023-05-10T14:20:54;12.68;;;5.50;;
78893;SDS011;68282;42.698;23.350;2023-05-10T14:23:21;8.90;;;5.05;;
78893;SDS011;68282;42.698;23.350;2023-05-10T14:25:52;13.90;;;5.70;;
78893;SDS011;68282;42.698;23.350;2023-05-10T14:28:17;7.63;;;5.18;;
78893;SDS011;68282;42.698;23.350;2023-05-10T14:30:43;7.38;;;4.97;;
78893;SDS011;68282;42.698;23.350;2023-05-10T14:33:09;7.38;;;5.10;;
78893;SDS011;68282;42.698;23.350;2023-05-10T14:35:35;8.23;;;4.97;;
78893;SDS011;68282;42.698;23.350;2023-05-10T14:38:01;7.53;;;5.60;;
78893;SDS011;68282;42.698;23.350;2023-05-10T14:40:28;8.35;;;5.32;;
78893;SDS011;68282;42.698;23.350;2023-05-10T14:42:54;8.88;;;5.15;;
78893;SDS011;68282;42.698;23.350;2023-05-10T14:45:20;8.93;;;5.18;;
78893;SDS011;68282;42.698;23.350;2023-05-10T14:47:45;9.43;;;5.88;;
78893;SDS011;68282;42.698;23.350;2023-05-10T14:50:11;7.95;;;5.32;;
78893;SDS011;68282;42.698;23.350;2023-05-10T14:55:58;6.97;;;4.97;;
78893;SDS011;68282;42.698;23.350;2023-05-10T14:58:26;8.57;;;5.18;;
78893;SDS011;68282;42.698;23.350;2023-05-10T15:00:52;12.93;;;6.22;;
78893;SDS011;68282;42.698;23.350;2023-05-10T15:03:17;9.10;;;5.85;;
78893;SDS011;68282;42.698;23.350;2023-05-10T15:05:43;8.90;;;5.35;;
78893;SDS011;68282;42.698;23.350;2023-05-10T15:08:08;8.75;;;5.68;;
78893;SDS011;68282;42.698;23.350;2023-05-10T15:10:34;8.50;;;5.68;;
78893;SDS011;68282;42.698;23.350;2023-05-10T15:13:00;10.15;;;6.18;;
78893;SDS011;68282;42.698;23.350;2023-05-10T15:15:26;7.20;;;4.90;;
78893;SDS011;68282;42.698;23.350;2023-05-10T15:17:51;6.30;;;5.38;;
78893;SDS011;68282;42.698;23.350;2023-05-10T15:20:17;8.73;;;5.57;;